Time;durP1;ratioP1;P1;durP2;ratioP2;P2;SDS_P1;SDS_P2;PMS_P1;PMS_P2;Temp;Humidity;BMP_temperature;BMP_pressure;BME280_temperature;BME280_humidity;BME280_pressure;Samples;Min_cycle;Max_cycle;Signal;HPM_P1;HPM_P2
2022/12/01 00:01:41;;;;;;;;;;;8.00;99.90;;;;;;5014149;28;20013;-77
2022/12/01 00:04:06;;;;;;;;;;;8.00;99.90;;;;;;5014094;28;19954;-77
2022/12/01 00:06:32;;;;;;;;;;;8.00;99.90;;;;;;5014469;28;20221;-77
2022/12/01 00:11:41;;;;;;;;;;;7.90;99.90;;;;;;5013917;28;19933;-79
2022/12/01 00:14:07;;;;;;;;;;;8.00;99.90;;;;;;5014638;28;19914;-77
2022/12/01 00:16:33;;;;;;;;;;;7.90;99.90;;;;;;5013464;28;19910;-77
2022/12/01 00:18:58;;;;;;;;;;;7.90;99.90;;;;;;5013842;28;19963;-77
2022/12/01 00:21:25;;;;;;;;;;;7.90;99.90;;;;;;5014236;28;19909;-77
2022/12/01 00:23:52;;;;;;;;;;;7.90;99.90;;;;;;5013663;28;20013;-76
2022/12/01 00:26:18;;;;;;;;;;;7.90;99.90;;;;;;5013606;28;19909;-77
2022/12/01 00:28:48;;;;;;;;;;;7.90;99.90;;;;;;5013572;28;19917;-78
2022/12/01 00:31:14;;;;;;;;;;;7.90;99.90;;;;;;5013921;28;20007;-76
2022/12/01 00:33:39;;;;;;;;;;;7.90;99.90;;;;;;5014075;28;19913;-77
2022/12/01 00:36:05;;;;;;;;;;;8.00;99.90;;;;;;5013272;28;20359;-76
2022/12/01 00:38:31;;;;;;;;;;;8.00;99.90;;;;;;5013073;28;19916;-77
2022/12/01 00:40:57;;;;;;;;;;;8.00;99.90;;;;;;5013484;28;19935;-77
2022/12/01 00:43:23;;;;;;;;;;;8.00;99.90;;;;;;5012854;28;20255;-82
2022/12/01 00:45:49;;;;;;;;;;;8.00;99.90;;;;;;5012908;28;19910;-76
2022/12/01 00:48:15;;;;;;;;;;;8.00;99.90;;;;;;5012707;28;19917;-79
2022/12/01 00:50:40;;;;;;;;;;;8.00;99.90;;;;;;5012315;28;20404;-79
2022/12/01 00:53:06;;;;;;;;;;;8.00;99.90;;;;;;5013056;28;19913;-80
2022/12/01 00:55:32;;;;;;;;;;;8.00;99.90;;;;;;5012000;28;19999;-77
2022/12/01 00:57:57;;;;;;;;;;;8.00;99.90;;;;;;5012779;28;20231;-77
2022/12/01 01:00:23;;;;;;;;;;;8.00;99.90;;;;;;5012616;28;20011;-77
2022/12/01 01:02:48;;;;;;;;;;;8.00;99.90;;;;;;5012192;28;20448;-77
2022/12/01 01:05:14;;;;;;;;;;;8.00;99.90;;;;;;5012313;28;19916;-77
2022/12/01 01:07:40;;;;;;;;;;;8.00;99.90;;;;;;5012124;28;19968;-77
2022/12/01 01:10:05;;;;;;;;;;;8.00;99.90;;;;;;5012420;28;20359;-77
2022/12/01 01:12:31;;;;;;;;;;;8.00;99.90;;;;;;5011923;28;19916;-77
2022/12/01 01:14:57;;;;;;;;;;;8.00;99.90;;;;;;5012694;28;19989;-76
2022/12/01 01:17:22;;;;;;;;;;;8.00;99.90;;;;;;5012084;28;20012;-81
2022/12/01 01:19:48;;;;;;;;;;;8.00;99.90;;;;;;5012111;28;19921;-77
2022/12/01 01:22:13;;;;;;;;;;;8.10;99.90;;;;;;5012348;28;19916;-76
2022/12/01 01:24:39;;;;;;;;;;;8.10;99.90;;;;;;5011804;28;20403;-77
2022/12/01 01:27:05;;;;;;;;;;;8.10;99.90;;;;;;5012103;28;19916;-77
2022/12/01 01:29:31;;;;;;;;;;;8.10;99.90;;;;;;5011720;28;19987;-78
2022/12/01 01:31:56;;;;;;;;;;;8.10;99.90;;;;;;5012311;28;20023;-76
2022/12/01 01:34:22;;;;;;;;;;;8.20;99.90;;;;;;5011782;28;20004;-79
2022/12/01 01:36:47;;;;;;;;;;;8.40;99.90;;;;;;5011830;28;19910;-77
2022/12/01 01:39:13;;;;;;;;;;;8.40;99.90;;;;;;5012378;28;19916;-78
2022/12/01 01:41:38;;;;;;;;;;;8.50;99.90;;;;;;5011990;28;19922;-77
2022/12/01 01:44:24;;;;;;;;;;;8.70;99.90;;;;;;5012232;28;19909;-79
2022/12/01 01:46:50;;;;;;;;;;;8.70;99.90;;;;;;5012141;28;20037;-79
2022/12/01 01:49:15;;;;;;;;;;;8.70;99.90;;;;;;5015996;28;19925;-79
2022/12/01 01:51:43;;;;;;;;;;;8.70;99.90;;;;;;5015512;28;19956;-78
2022/12/01 01:54:26;;;;;;;;;;;8.80;99.90;;;;;;5015831;28;19909;-78
2022/12/01 01:56:53;;;;;;;;;;;8.80;99.90;;;;;;5015586;28;19909;-78
2022/12/01 01:59:24;;;;;;;;;;;8.80;99.90;;;;;;5015610;28;20346;-78
2022/12/01 02:01:55;;;;;;;;;;;8.80;99.90;;;;;;5015079;28;19949;-78
2022/12/01 02:04:22;;;;;;;;;;;8.90;99.90;;;;;;5015707;28;19974;-78
2022/12/01 02:06:47;;;;;;;;;;;8.90;99.90;;;;;;5014984;28;19963;-78
2022/12/01 02:09:14;;;;;;;;;;;8.90;99.90;;;;;;5015422;28;19992;-78
2022/12/01 02:11:52;;;;;;;;;;;8.90;99.90;;;;;;5014459;28;20363;-78
2022/12/01 02:14:33;;;;;;;;;;;9.00;99.90;;;;;;5014663;28;20354;-79
2022/12/01 02:16:58;;;;;;;;;;;9.00;99.90;;;;;;5015282;28;20350;-79
2022/12/01 02:19:24;;;;;;;;;;;9.10;99.90;;;;;;5014980;28;19941;-79
2022/12/01 02:21:49;;;;;;;;;;;9.10;99.90;;;;;;5014489;28;20019;-79
2022/12/01 02:24:42;;;;;;;;;;;9.10;99.90;;;;;;5013513;28;19910;-79
2022/12/01 02:27:13;;;;;;;;;;;9.20;99.90;;;;;;5014478;28;19916;-79
2022/12/01 02:29:59;;;;;;;;;;;9.30;99.90;;;;;;5014544;28;19921;-79
2022/12/01 02:32:43;;;;;;;;;;;9.30;99.90;;;;;;5014234;28;19909;-79
2022/12/01 02:35:17;;;;;;;;;;;9.30;99.90;;;;;;5014942;28;19964;-79
2022/12/01 02:37:49;;;;;;;;;;;9.40;99.90;;;;;;5014081;28;19910;-79
2022/12/01 02:40:20;;;;;;;;;;;9.40;99.90;;;;;;5014631;28;19917;-78
2022/12/01 02:42:49;;;;;;;;;;;9.50;99.90;;;;;;5013725;28;20286;-76
2022/12/01 02:45:34;;;;;;;;;;;9.50;99.90;;;;;;5014482;28;20047;-76
2022/12/01 02:48:01;;;;;;;;;;;9.50;99.90;;;;;;5014364;28;19926;-77
2022/12/01 02:50:28;;;;;;;;;;;9.50;99.90;;;;;;5013884;28;19916;-76
2022/12/01 02:52:53;;;;;;;;;;;9.50;99.90;;;;;;5014016;28;20311;-76
2022/12/01 02:55:19;;;;;;;;;;;9.50;99.90;;;;;;5014515;28;19913;-76
2022/12/01 02:57:44;;;;;;;;;;;9.50;99.90;;;;;;5013763;28;19917;-76
2022/12/01 03:00:12;;;;;;;;;;;9.50;99.90;;;;;;5014630;28;19920;-77
2022/12/01 03:02:56;;;;;;;;;;;9.50;99.90;;;;;;5013968;28;19909;-77
2022/12/01 03:05:34;;;;;;;;;;;9.60;99.90;;;;;;5014312;28;19964;-77
2022/12/01 03:07:59;;;;;;;;;;;9.60;99.90;;;;;;5012665;28;19918;-77
2022/12/01 03:10:33;;;;;;;;;;;9.60;99.90;;;;;;5013874;28;20008;-77
2022/12/01 03:13:17;;;;;;;;;;;9.60;99.90;;;;;;5013738;28;20000;-77
2022/12/01 03:15:45;;;;;;;;;;;9.60;99.90;;;;;;5013917;28;19918;-77
2022/12/01 03:18:11;;;;;;;;;;;9.60;99.90;;;;;;5013982;28;19949;-77
2022/12/01 03:20:39;;;;;;;;;;;9.50;99.90;;;;;;5013910;28;19909;-78
2022/12/01 03:23:11;;;;;;;;;;;9.50;99.90;;;;;;5013964;28;20418;-77
2022/12/01 03:25:39;;;;;;;;;;;9.50;99.90;;;;;;5013927;28;19910;-77
2022/12/01 03:28:04;;;;;;;;;;;9.50;99.90;;;;;;5014176;28;19977;-77
2022/12/01 03:30:35;;;;;;;;;;;9.40;99.90;;;;;;5013554;28;20365;-78
2022/12/01 03:33:04;;;;;;;;;;;9.40;99.90;;;;;;5014153;28;19983;-77
2022/12/01 03:35:35;;;;;;;;;;;9.30;99.90;;;;;;5013614;28;19980;-79
2022/12/01 03:38:07;;;;;;;;;;;9.30;99.90;;;;;;5013523;28;19910;-77
2022/12/01 03:40:35;;;;;;;;;;;9.20;99.90;;;;;;5013770;28;20008;-77
2022/12/01 03:43:06;;;;;;;;;;;9.10;99.90;;;;;;5013370;28;19910;-77
2022/12/01 03:45:54;;;;;;;;;;;9.00;99.90;;;;;;5013933;28;19975;-77
2022/12/01 03:48:21;;;;;;;;;;;9.00;99.90;;;;;;5013027;28;19928;-77
2022/12/01 03:50:55;;;;;;;;;;;8.90;99.90;;;;;;5011848;28;19933;-77
2022/12/01 03:53:24;;;;;;;;;;;8.80;99.90;;;;;;5013628;28;19910;-76
2022/12/01 03:55:52;;;;;;;;;;;8.80;99.90;;;;;;5012747;28;20120;-77
2022/12/01 03:58:21;;;;;;;;;;;8.80;99.90;;;;;;5011864;28;19909;-77
2022/12/01 04:00:52;;;;;;;;;;;8.70;99.90;;;;;;5013173;28;19952;-78
2022/12/01 04:03:18;;;;;;;;;;;8.70;99.90;;;;;;5013288;28;19927;-77
2022/12/01 04:05:44;;;;;;;;;;;8.70;99.90;;;;;;5011306;28;20000;-78
2022/12/01 04:08:10;;;;;;;;;;;8.60;99.90;;;;;;5011613;28;20012;-77
2022/12/01 04:10:35;;;;;;;;;;;8.70;99.90;;;;;;5012561;28;19964;-77
2022/12/01 04:13:01;;;;;;;;;;;8.60;99.90;;;;;;5012284;28;19932;-78
2022/12/01 04:15:26;;;;;;;;;;;8.70;99.90;;;;;;5012298;28;19932;-77
2022/12/01 04:17:52;;;;;;;;;;;8.70;99.90;;;;;;5015198;28;19916;-78
2022/12/01 04:20:19;;;;;;;;;;;8.80;99.90;;;;;;5035451;28;19913;-78
2022/12/01 04:22:44;;;;;;;;;;;8.80;99.90;;;;;;5035323;28;19921;-81
2022/12/01 04:25:10;;;;;;;;;;;8.90;99.90;;;;;;5036228;28;20044;-78
2022/12/01 04:27:36;;;;;;;;;;;8.90;99.90;;;;;;5035723;28;19921;-77
2022/12/01 04:30:02;;;;;;;;;;;9.00;99.90;;;;;;5035925;28;19921;-78
2022/12/01 04:32:28;;;;;;;;;;;9.00;99.90;;;;;;5035390;28;19902;-78
2022/12/01 04:34:54;;;;;;;;;;;9.10;99.90;;;;;;5018027;28;19972;-77
2022/12/01 04:37:19;;;;;;;;;;;9.10;99.90;;;;;;5012517;28;19967;-78
2022/12/01 04:39:45;;;;;;;;;;;9.20;99.90;;;;;;5011058;28;19915;-78
2022/12/01 04:42:11;;;;;;;;;;;9.20;99.90;;;;;;5012279;28;19964;-77
2022/12/01 04:44:36;;;;;;;;;;;9.30;99.90;;;;;;5012444;28;20359;-77
2022/12/01 04:47:03;;;;;;;;;;;9.30;99.90;;;;;;5012175;28;19910;-77
2022/12/01 04:49:28;;;;;;;;;;;9.30;99.90;;;;;;5012247;28;20384;-77
2022/12/01 04:51:54;;;;;;;;;;;9.30;99.90;;;;;;5010232;28;19956;-78
2022/12/01 04:54:20;;;;;;;;;;;9.30;99.90;;;;;;5010917;28;19924;-77
2022/12/01 04:56:45;;;;;;;;;;;9.30;99.90;;;;;;5011660;28;20215;-78
2022/12/01 04:59:11;;;;;;;;;;;9.30;99.90;;;;;;5011992;28;19913;-77
2022/12/01 05:01:37;;;;;;;;;;;9.30;99.90;;;;;;5011982;28;19999;-77
2022/12/01 05:04:03;;;;;;;;;;;9.30;99.90;;;;;;5011187;28;19993;-77
2022/12/01 05:06:28;;;;;;;;;;;9.20;99.90;;;;;;5011596;28;20407;-77
2022/12/01 05:08:55;;;;;;;;;;;9.20;99.90;;;;;;5011392;28;19917;-77
2022/12/01 05:11:21;;;;;;;;;;;9.20;99.90;;;;;;5011698;28;19980;-77
2022/12/01 05:13:47;;;;;;;;;;;9.20;99.90;;;;;;5011069;28;19972;-77
2022/12/01 05:16:17;;;;;;;;;;;9.20;99.90;;;;;;5011667;28;19913;-77
2022/12/01 05:18:46;;;;;;;;;;;9.10;99.90;;;;;;5011429;28;19963;-81
2022/12/01 05:21:12;;;;;;;;;;;9.10;99.90;;;;;;5011672;28;19986;-78
2022/12/01 05:23:38;;;;;;;;;;;9.00;99.90;;;;;;5009890;28;20261;-77
2022/12/01 05:26:04;;;;;;;;;;;9.00;99.90;;;;;;5011362;28;19905;-78
2022/12/01 05:28:30;;;;;;;;;;;8.90;99.90;;;;;;5011314;28;19928;-78
2022/12/01 05:30:56;;;;;;;;;;;8.90;99.90;;;;;;5010460;28;20256;-77
2022/12/01 05:33:22;;;;;;;;;;;8.80;99.90;;;;;;5011442;28;19910;-78
2022/12/01 05:35:48;;;;;;;;;;;8.80;99.90;;;;;;5010710;28;20110;-78
2022/12/01 05:38:14;;;;;;;;;;;8.70;99.90;;;;;;5011371;28;19945;-77
2022/12/01 05:40:40;;;;;;;;;;;8.60;99.90;;;;;;5011519;28;20067;-77
2022/12/01 05:43:05;;;;;;;;;;;8.60;99.90;;;;;;5010690;28;20087;-78
2022/12/01 05:45:31;;;;;;;;;;;8.50;99.90;;;;;;5011246;28;20307;-78
2022/12/01 05:47:58;;;;;;;;;;;8.40;99.90;;;;;;5010596;28;19917;-77
2022/12/01 05:50:24;;;;;;;;;;;8.40;99.90;;;;;;5009749;28;20039;-77
2022/12/01 05:52:50;;;;;;;;;;;8.30;99.90;;;;;;5010518;28;20262;-78
2022/12/01 05:55:16;;;;;;;;;;;8.30;99.90;;;;;;5011249;28;20000;-78
2022/12/01 05:57:42;;;;;;;;;;;8.20;99.90;;;;;;5011300;28;20008;-77
2022/12/01 06:00:08;;;;;;;;;;;8.20;99.90;;;;;;5009487;28;19910;-77
2022/12/01 06:02:34;;;;;;;;;;;8.20;99.90;;;;;;5011110;28;20321;-77
2022/12/01 06:04:59;;;;;;;;;;;8.20;99.90;;;;;;5009331;28;19925;-77
2022/12/01 06:07:25;;;;;;;;;;;8.20;99.90;;;;;;5011425;28;20083;-77
2022/12/01 06:09:51;;;;;;;;;;;8.20;99.90;;;;;;5009160;28;19909;-78
2022/12/01 06:12:17;;;;;;;;;;;8.30;99.90;;;;;;5011503;28;19909;-77
2022/12/01 06:14:43;;;;;;;;;;;8.30;99.90;;;;;;5011216;28;19955;-77
2022/12/01 06:17:08;;;;;;;;;;;8.40;99.90;;;;;;5010741;28;20283;-76
2022/12/01 06:19:34;;;;;;;;;;;8.40;99.90;;;;;;5011048;28;19968;-77
2022/12/01 06:22:00;;;;;;;;;;;8.50;99.90;;;;;;5010663;28;19920;-78
2022/12/01 06:24:25;;;;;;;;;;;8.50;99.90;;;;;;5010770;28;19913;-77
2022/12/01 06:26:51;;;;;;;;;;;8.50;99.90;;;;;;5010557;28;19960;-78
2022/12/01 06:29:16;;;;;;;;;;;8.50;99.90;;;;;;5009101;28;19968;-77
2022/12/01 06:31:42;;;;;;;;;;;8.50;99.90;;;;;;5011008;28;19952;-78
2022/12/01 06:34:08;;;;;;;;;;;8.50;99.90;;;;;;5013443;28;19966;-77
2022/12/01 06:36:33;;;;;;;;;;;8.50;99.90;;;;;;5014769;28;20009;-77
2022/12/01 06:38:59;;;;;;;;;;;8.50;99.90;;;;;;5014751;28;19910;-77
2022/12/01 06:41:24;;;;;;;;;;;8.50;99.90;;;;;;5015034;28;19975;-77
2022/12/01 06:43:50;;;;;;;;;;;8.50;99.90;;;;;;5014184;28;19913;-79
2022/12/01 06:46:15;;;;;;;;;;;8.60;99.90;;;;;;5014119;28;19910;-77
2022/12/01 06:48:41;;;;;;;;;;;8.60;99.90;;;;;;5014400;28;20026;-79
2022/12/01 06:51:06;;;;;;;;;;;8.60;99.90;;;;;;5014273;28;19919;-79
2022/12/01 06:53:32;;;;;;;;;;;8.70;99.90;;;;;;5014762;28;20381;-78
2022/12/01 06:56:01;;;;;;;;;;;8.70;99.90;;;;;;5014521;28;19910;-78
2022/12/01 06:58:27;;;;;;;;;;;8.70;99.90;;;;;;5014355;28;19910;-78
2022/12/01 07:00:53;;;;;;;;;;;8.70;99.90;;;;;;5014315;28;19916;-78
2022/12/01 07:03:18;;;;;;;;;;;8.80;99.90;;;;;;5014213;28;19909;-78
2022/12/01 07:05:44;;;;;;;;;;;8.80;99.90;;;;;;5014520;28;19910;-78
2022/12/01 07:08:11;;;;;;;;;;;8.70;99.90;;;;;;5013110;28;19913;-79
2022/12/01 07:10:36;;;;;;;;;;;8.80;99.90;;;;;;5014610;28;19920;-78
2022/12/01 07:13:02;;;;;;;;;;;8.80;99.90;;;;;;5013976;28;19910;-78
2022/12/01 07:15:27;;;;;;;;;;;8.80;99.90;;;;;;5014442;28;19955;-79
2022/12/01 07:17:53;;;;;;;;;;;8.80;99.90;;;;;;5013644;28;19909;-78
2022/12/01 07:20:19;;;;;;;;;;;8.80;99.90;;;;;;5013916;28;19972;-78
2022/12/01 07:22:44;;;;;;;;;;;8.80;99.90;;;;;;5014198;28;19910;-78
2022/12/01 07:25:10;;;;;;;;;;;8.80;99.90;;;;;;5013970;28;19968;-78
2022/12/01 07:27:35;;;;;;;;;;;8.70;99.90;;;;;;5013641;28;20308;-77
2022/12/01 07:30:02;;;;;;;;;;;8.80;99.90;;;;;;5013133;28;19921;-78
2022/12/01 07:32:27;;;;;;;;;;;8.90;99.90;;;;;;5013911;28;20008;-78
2022/12/01 07:34:53;;;;;;;;;;;8.90;99.90;;;;;;5012009;28;20001;-81
2022/12/01 07:37:18;;;;;;;;;;;9.00;99.90;;;;;;5012220;28;20012;-78
2022/12/01 07:39:44;;;;;;;;;;;9.10;99.90;;;;;;5013481;28;19917;-77
2022/12/01 07:42:09;;;;;;;;;;;9.20;99.90;;;;;;5013086;28;19924;-77
2022/12/01 07:44:35;;;;;;;;;;;9.20;99.90;;;;;;5012782;28;19910;-77
2022/12/01 07:47:01;;;;;;;;;;;9.20;99.90;;;;;;5012093;28;20343;-78
2022/12/01 07:49:26;;;;;;;;;;;9.30;99.90;;;;;;5013373;28;19996;-78
2022/12/01 07:51:52;;;;;;;;;;;9.30;99.90;;;;;;5013533;28;19910;-82
2022/12/01 07:54:20;;;;;;;;;;;9.30;99.90;;;;;;5013271;28;19917;-78
2022/12/01 07:56:45;;;;;;;;;;;9.30;99.90;;;;;;5013080;28;20000;-78
2022/12/01 07:59:11;;;;;;;;;;;9.20;99.90;;;;;;5012856;28;19963;-78
2022/12/01 08:01:37;;;;;;;;;;;9.20;99.90;;;;;;5013008;28;19909;-77
2022/12/01 08:04:02;;;;;;;;;;;9.20;99.90;;;;;;5012609;28;20281;-78
2022/12/01 08:06:28;;;;;;;;;;;9.20;99.90;;;;;;5012668;28;19910;-78
2022/12/01 08:08:54;;;;;;;;;;;9.20;99.90;;;;;;5012388;28;20279;-81
2022/12/01 08:11:21;;;;;;;;;;;9.20;99.90;;;;;;5012847;28;19909;-77
2022/12/01 08:13:47;;;;;;;;;;;9.10;99.90;;;;;;5011300;28;19910;-77
2022/12/01 08:16:14;;;;;;;;;;;9.10;99.90;;;;;;5012379;28;20005;-77
2022/12/01 08:18:40;;;;;;;;;;;9.20;99.90;;;;;;5012954;28;20343;-78
2022/12/01 08:21:06;;;;;;;;;;;9.10;99.90;;;;;;5012119;28;19910;-77
2022/12/01 08:23:32;;;;;;;;;;;9.10;99.90;;;;;;5012651;28;20075;-77
2022/12/01 08:26:01;;;;;;;;;;;9.10;99.90;;;;;;5012024;28;20408;-78
2022/12/01 08:28:27;;;;;;;;;;;9.20;99.90;;;;;;5010867;28;19983;-78
2022/12/01 08:30:52;;;;;;;;;;;9.20;99.90;;;;;;5012285;28;19929;-80
2022/12/01 08:33:18;;;;;;;;;;;9.20;99.90;;;;;;5010263;28;20007;-77
2022/12/01 08:35:43;;;;;;;;;;;9.20;99.90;;;;;;5011981;28;19993;-78
2022/12/01 08:38:09;;;;;;;;;;;9.20;99.90;;;;;;5011131;28;19909;-78
2022/12/01 08:40:35;;;;;;;;;;;9.20;99.90;;;;;;5012173;28;19921;-78
2022/12/01 08:43:01;;;;;;;;;;;9.30;99.90;;;;;;5011738;28;19992;-78
2022/12/01 08:45:26;;;;;;;;;;;9.30;99.90;;;;;;5011903;28;19910;-78
2022/12/01 08:47:52;;;;;;;;;;;9.20;99.90;;;;;;5010030;28;19925;-78
2022/12/01 08:50:18;;;;;;;;;;;9.20;99.90;;;;;;5011215;28;19917;-78
2022/12/01 08:52:44;;;;;;;;;;;9.20;99.90;;;;;;5011641;28;20318;-77
2022/12/01 08:55:10;;;;;;;;;;;9.20;99.90;;;;;;5012096;28;20251;-77
2022/12/01 08:57:37;;;;;;;;;;;9.20;99.90;;;;;;5012565;28;19909;-77
2022/12/01 09:00:02;;;;;;;;;;;9.20;99.90;;;;;;5011821;28;19915;-78
2022/12/01 09:02:28;;;;;;;;;;;9.20;99.90;;;;;;5012437;28;19944;-78
2022/12/01 09:04:54;;;;;;;;;;;9.20;99.90;;;;;;5011759;28;19964;-79
2022/12/01 09:07:20;;;;;;;;;;;9.20;99.90;;;;;;5011510;28;19963;-78
2022/12/01 09:09:45;;;;;;;;;;;9.20;99.90;;;;;;5012216;28;19909;-78
2022/12/01 09:12:11;;;;;;;;;;;9.20;99.90;;;;;;5011985;28;19914;-78
2022/12/01 09:14:38;;;;;;;;;;;9.20;99.90;;;;;;5011920;28;19959;-78
2022/12/01 09:17:05;;;;;;;;;;;9.20;99.90;;;;;;5010223;28;19961;-79
2022/12/01 09:19:30;;;;;;;;;;;9.30;99.90;;;;;;5010600;28;19920;-78
2022/12/01 09:21:56;;;;;;;;;;;9.30;99.90;;;;;;5010610;28;19914;-78
2022/12/01 09:24:22;;;;;;;;;;;9.40;99.90;;;;;;5011250;28;19916;-78
2022/12/01 09:26:49;;;;;;;;;;;9.40;99.90;;;;;;5011691;28;19916;-78
2022/12/01 09:29:15;;;;;;;;;;;9.40;99.90;;;;;;5011260;28;20104;-78
2022/12/01 09:31:41;;;;;;;;;;;9.50;99.90;;;;;;5012172;28;19925;-78
2022/12/01 09:34:10;;;;;;;;;;;9.50;99.90;;;;;;5011346;28;19961;-79
2022/12/01 09:36:36;;;;;;;;;;;9.60;99.90;;;;;;5011882;28;19941;-78
2022/12/01 09:39:03;;;;;;;;;;;9.60;99.90;;;;;;5011345;28;19972;-80
2022/12/01 09:41:31;;;;;;;;;;;9.70;99.90;;;;;;5011631;28;19914;-79
2022/12/01 09:44:21;;;;;;;;;;;9.80;99.90;;;;;;5011913;28;19953;-78
2022/12/01 09:46:48;;;;;;;;;;;9.80;99.90;;;;;;5006243;28;19909;-78
2022/12/01 09:49:21;;;;;;;;;;;9.90;99.90;;;;;;5011378;28;19961;-79
2022/12/01 09:51:47;;;;;;;;;;;10.00;99.90;;;;;;5011634;28;19918;-79
2022/12/01 09:54:13;;;;;;;;;;;10.00;99.90;;;;;;5011306;28;19928;-79
2022/12/01 09:56:42;;;;;;;;;;;10.10;99.90;;;;;;5011766;28;20282;-78
2022/12/01 09:59:13;;;;;;;;;;;10.20;99.90;;;;;;5011299;28;20357;-79
2022/12/01 10:01:41;;;;;;;;;;;10.30;99.90;;;;;;5026918;28;19910;-78
2022/12/01 10:04:09;;;;;;;;;;;10.30;99.90;;;;;;5034604;28;19914;-81
2022/12/01 10:06:38;;;;;;;;;;;10.40;99.90;;;;;;5034906;28;19945;-79
2022/12/01 10:09:06;;;;;;;;;;;10.40;99.90;;;;;;5035838;28;19937;-84
2022/12/01 10:11:34;;;;;;;;;;;10.50;99.90;;;;;;5038991;28;19929;-79
2022/12/01 10:14:00;;;;;;;;;;;10.50;99.90;;;;;;5039145;28;19902;-79
2022/12/01 10:16:30;;;;;;;;;;;10.60;99.90;;;;;;5038254;28;19936;-80
2022/12/01 10:18:55;;;;;;;;;;;10.60;99.90;;;;;;5038913;28;19948;-81
2022/12/01 10:21:33;;;;;;;;;;;10.70;99.90;;;;;;5036796;28;19917;-79
2022/12/01 10:24:02;;;;;;;;;;;10.70;99.90;;;;;;5028853;28;19964;-78
2022/12/01 10:26:33;;;;;;;;;;;10.70;99.90;;;;;;5025793;28;19909;-79
2022/12/01 10:29:12;;;;;;;;;;;10.70;99.90;;;;;;5024424;28;19929;-79
2022/12/01 10:31:45;;;;;;;;;;;10.70;99.90;;;;;;5021648;28;19972;-78
2022/12/01 10:34:31;;;;;;;;;;;10.70;99.90;;;;;;5019868;28;19916;-79
2022/12/01 10:36:57;;;;;;;;;;;10.70;99.90;;;;;;5020777;28;19925;-79
2022/12/01 10:39:30;;;;;;;;;;;10.70;99.90;;;;;;5019007;28;20099;-79
2022/12/01 10:42:06;;;;;;;;;;;10.70;99.90;;;;;;5018970;28;19914;-78
2022/12/01 10:44:33;;;;;;;;;;;10.70;99.90;;;;;;5018004;28;19910;-79
2022/12/01 10:46:58;;;;;;;;;;;10.70;99.90;;;;;;5017653;28;19909;-79
2022/12/01 10:49:38;;;;;;;;;;;10.80;99.90;;;;;;5018262;28;20433;-79
2022/12/01 10:52:04;;;;;;;;;;;10.80;99.90;;;;;;5017459;28;19909;-82
2022/12/01 10:54:32;;;;;;;;;;;10.90;99.90;;;;;;5017954;28;19913;-79
2022/12/01 10:56:57;;;;;;;;;;;10.90;99.90;;;;;;5015269;28;20046;-78
2022/12/01 10:59:23;;;;;;;;;;;11.00;99.90;;;;;;5016328;28;19944;-80
2022/12/01 11:01:49;;;;;;;;;;;11.00;99.90;;;;;;5016503;28;19909;-79
2022/12/01 11:04:20;;;;;;;;;;;11.10;99.90;;;;;;5016145;28;19910;-79
2022/12/01 11:06:49;;;;;;;;;;;11.10;99.90;;;;;;5016120;28;19910;-79
2022/12/01 11:09:19;;;;;;;;;;;11.10;99.90;;;;;;5015248;28;19921;-79
2022/12/01 11:11:45;;;;;;;;;;;11.20;99.90;;;;;;5015910;28;20287;-79
2022/12/01 11:14:22;;;;;;;;;;;11.20;99.90;;;;;;5015579;28;19992;-80
2022/12/01 11:16:48;;;;;;;;;;;11.20;99.90;;;;;;5014462;28;19910;-79
2022/12/01 11:19:17;;;;;;;;;;;11.30;99.90;;;;;;5014867;28;19916;-79
2022/12/01 11:21:45;;;;;;;;;;;11.40;99.90;;;;;;5015196;28;19992;-79
2022/12/01 11:24:23;;;;;;;;;;;11.40;99.90;;;;;;5014930;28;19913;-79
2022/12/01 11:26:49;;;;;;;;;;;11.50;99.90;;;;;;5015494;28;20000;-79
2022/12/01 11:29:26;;;;;;;;;;;11.60;99.90;;;;;;5014357;28;20079;-80
2022/12/01 11:31:52;;;;;;;;;;;11.60;99.90;;;;;;5014445;28;19945;-79
2022/12/01 11:34:23;;;;;;;;;;;11.70;99.90;;;;;;5014357;28;20358;-79
2022/12/01 11:36:50;;;;;;;;;;;11.70;99.90;;;;;;5014957;28;19920;-79
2022/12/01 11:39:36;;;;;;;;;;;11.70;99.90;;;;;;5013917;28;20232;-78
2022/12/01 11:42:22;;;;;;;;;;;11.60;99.90;;;;;;5014420;28;19909;-79
2022/12/01 11:44:49;;;;;;;;;;;11.70;99.90;;;;;;5013062;28;20175;-80
2022/12/01 11:47:19;;;;;;;;;;;11.70;99.90;;;;;;5013138;28;19916;-79
2022/12/01 11:49:47;;;;;;;;;;;11.70;99.90;;;;;;5014013;28;19918;-79
2022/12/01 11:52:17;;;;;;;;;;;11.70;99.90;;;;;;5013207;28;19910;-78
2022/12/01 11:54:53;;;;;;;;;;;11.70;99.90;;;;;;5013620;28;19960;-79
2022/12/01 11:57:19;;;;;;;;;;;11.70;99.90;;;;;;5012778;28;19922;-79
2022/12/01 11:59:45;;;;;;;;;;;11.70;99.90;;;;;;5013508;28;19929;-78
2022/12/01 12:02:20;;;;;;;;;;;11.70;99.90;;;;;;5012985;28;19910;-78
2022/12/01 12:04:57;;;;;;;;;;;11.70;99.90;;;;;;5013180;28;19917;-78
2022/12/01 12:07:41;;;;;;;;;;;11.70;99.90;;;;;;5013126;28;20438;-78
2022/12/01 12:10:16;;;;;;;;;;;11.70;99.90;;;;;;5013623;28;19910;-80
2022/12/01 12:13:00;;;;;;;;;;;11.70;99.90;;;;;;5013422;28;19979;-78
2022/12/01 12:15:35;;;;;;;;;;;11.70;99.90;;;;;;5011284;28;20426;-78
2022/12/01 12:18:39;;;;;;;;;;;11.70;99.90;;;;;;5012947;28;20351;-78
2022/12/01 12:21:19;;;;;;;;;;;11.70;99.90;;;;;;4971822;28;19917;-79
2022/12/01 12:23:56;;;;;;;;;;;11.70;99.90;;;;;;4972068;28;19911;-77
2022/12/01 12:26:25;;;;;;;;;;;11.70;99.90;;;;;;4997857;28;20012;-78
2022/12/01 12:29:09;;;;;;;;;;;11.60;99.90;;;;;;5013002;28;19996;-78
2022/12/01 12:31:35;;;;;;;;;;;11.60;99.90;;;;;;5011387;28;19921;-78
2022/12/01 12:34:13;;;;;;;;;;;11.70;99.90;;;;;;5013119;28;19916;-78
2022/12/01 12:36:48;;;;;;;;;;;11.70;99.90;;;;;;5013365;28;19952;-77
2022/12/01 12:39:16;;;;;;;;;;;11.70;99.90;;;;;;5012526;28;19981;-78
2022/12/01 12:41:45;;;;;;;;;;;11.70;99.90;;;;;;5012419;28;19996;-77
2022/12/01 12:44:22;;;;;;;;;;;11.70;99.90;;;;;;5012776;28;20390;-83
2022/12/01 12:46:57;;;;;;;;;;;11.70;99.90;;;;;;5012627;28;19909;-78
2022/12/01 12:49:30;;;;;;;;;;;11.70;99.90;;;;;;5012739;28;20363;-78
2022/12/01 12:52:02;;;;;;;;;;;11.70;99.90;;;;;;5012431;28;19983;-78
2022/12/01 12:54:30;;;;;;;;;;;11.70;99.90;;;;;;5012303;28;19913;-78
2022/12/01 12:57:14;;;;;;;;;;;11.60;99.90;;;;;;5013167;28;19988;-79
2022/12/01 13:00:00;;;;;;;;;;;11.60;99.90;;;;;;5011881;28;20302;-78
2022/12/01 13:02:28;;;;;;;;;;;11.60;99.90;;;;;;5002454;28;20354;-82
2022/12/01 13:04:58;;;;;;;;;;;11.60;99.90;;;;;;5011470;28;19916;-81
2022/12/01 13:07:40;;;;;;;;;;;11.60;99.90;;;;;;5011994;28;20439;-82
2022/12/01 13:10:27;;;;;;;;;;;11.60;99.90;;;;;;5012868;28;20008;-82
2022/12/01 13:13:16;;;;;;;;;;;11.60;99.90;;;;;;5012431;28;20279;-82
2022/12/01 13:15:42;;;;;;;;;;;11.60;99.90;;;;;;5011839;28;19981;-81
2022/12/01 13:18:31;;;;;;;;;;;11.50;99.90;;;;;;5011390;28;20283;-81
2022/12/01 13:20:57;;;;;;;;;;;11.50;99.90;;;;;;5012185;28;19963;-81
2022/12/01 13:23:23;;;;;;;;;;;11.50;99.90;;;;;;5011925;28;20319;-82
2022/12/01 13:25:50;;;;;;;;;;;11.50;99.90;;;;;;5012301;28;20000;-82
2022/12/01 13:28:37;;;;;;;;;;;11.50;99.90;;;;;;5011582;28;20047;-82
2022/12/01 13:31:04;;;;;;;;;;;11.50;99.90;;;;;;5011989;28;19995;-82
2022/12/01 13:33:31;;;;;;;;;;;11.50;99.90;;;;;;5011389;28;19920;-81
2022/12/01 13:35:56;;;;;;;;;;;11.50;99.90;;;;;;5012076;28;19936;-81
2022/12/01 13:38:32;;;;;;;;;;;11.50;99.90;;;;;;5011848;28;19913;-82
2022/12/01 13:41:10;;;;;;;;;;;11.50;99.90;;;;;;5012125;28;20008;-81
2022/12/01 13:43:36;;;;;;;;;;;11.50;99.90;;;;;;5010935;28;20310;-82
2022/12/01 13:46:02;;;;;;;;;;;11.50;99.90;;;;;;5012166;28;19910;-81
2022/12/01 13:48:48;;;;;;;;;;;11.50;99.90;;;;;;5011849;28;19918;-80
2022/12/01 13:51:14;;;;;;;;;;;11.50;99.90;;;;;;5012233;28;20046;-81
2022/12/01 13:53:53;;;;;;;;;;;11.50;99.90;;;;;;5011072;28;19949;-79
2022/12/01 13:56:19;;;;;;;;;;;11.50;99.90;;;;;;5011416;28;19910;-81
2022/12/01 13:58:50;;;;;;;;;;;11.60;99.90;;;;;;5011948;28;20224;-81
2022/12/01 14:01:18;;;;;;;;;;;11.60;99.90;;;;;;5011188;28;20394;-83
2022/12/01 14:04:10;;;;;;;;;;;11.60;99.90;;;;;;5011323;28;19909;-81
2022/12/01 14:06:45;;;;;;;;;;;11.60;99.90;;;;;;5008109;28;19909;-82
2022/12/01 14:09:29;;;;;;;;;;;11.60;99.90;;;;;;5011410;28;19929;-80
2022/12/01 14:11:55;;;;;;;;;;;11.60;99.90;;;;;;5011645;28;19910;-81
2022/12/01 14:14:22;;;;;;;;;;;11.60;99.90;;;;;;5011336;28;19976;-82
2022/12/01 14:16:52;;;;;;;;;;;11.60;99.90;;;;;;5011734;28;19955;-81
2022/12/01 14:19:38;;;;;;;;;;;11.50;99.90;;;;;;5011160;28;19909;-84
2022/12/01 14:22:04;;;;;;;;;;;11.50;99.90;;;;;;5011046;28;19917;-80
2022/12/01 14:24:33;;;;;;;;;;;11.50;99.90;;;;;;5010892;28;20419;-80
2022/12/01 14:26:59;;;;;;;;;;;11.50;99.90;;;;;;5011233;28;20358;-81
2022/12/01 14:29:29;;;;;;;;;;;11.40;99.90;;;;;;5010896;28;20011;-81
2022/12/01 14:32:03;;;;;;;;;;;11.40;99.90;;;;;;5011202;28;19925;-81
2022/12/01 14:34:29;;;;;;;;;;;11.30;99.90;;;;;;5010862;28;19969;-81
2022/12/01 14:36:57;;;;;;;;;;;11.30;99.90;;;;;;5011308;28;19910;-82
2022/12/01 14:39:25;;;;;;;;;;;11.40;99.90;;;;;;5010665;28;19965;-82